sensor_id;sensor_type;location;lat;lon;timestamp;P1;durP1;ratioP1;P2;durP2;ratioP2
36061;SDS011;22123;52.412;20.970;2023-02-05T00:00:23;2.45;;;1.90;;
36061;SDS011;22123;52.412;20.970;2023-02-05T00:02:49;4.70;;;2.10;;
36061;SDS011;22123;52.412;20.970;2023-02-05T00:05:15;2.97;;;1.75;;
36061;SDS011;22123;52.412;20.970;2023-02-05T00:07:41;5.72;;;1.63;;
36061;SDS011;22123;52.412;20.970;2023-02-05T00:10:06;3.20;;;1.42;;
36061;SDS011;22123;52.412;20.970;2023-02-05T00:12:32;4.57;;;2.03;;
36061;SDS011;22123;52.412;20.970;2023-02-05T00:14:58;4.65;;;2.63;;
36061;SDS011;22123;52.412;20.970;2023-02-05T00:17:24;9.80;;;3.20;;
36061;SDS011;22123;52.412;20.970;2023-02-05T00:19:50;2.85;;;1.25;;
36061;SDS011;22123;52.412;20.970;2023-02-05T00:22:16;5.53;;;1.38;;
36061;SDS011;22123;52.412;20.970;2023-02-05T00:24:42;7.40;;;2.63;;
36061;SDS011;22123;52.412;20.970;2023-02-05T00:27:08;7.40;;;1.60;;
36061;SDS011;22123;52.412;20.970;2023-02-05T00:29:33;3.65;;;2.08;;
36061;SDS011;22123;52.412;20.970;2023-02-05T00:31:59;4.15;;;1.05;;
36061;SDS011;22123;52.412;20.970;2023-02-05T00:34:25;2.72;;;1.67;;
36061;SDS011;22123;52.412;20.970;2023-02-05T00:36:51;8.32;;;2.63;;
36061;SDS011;22123;52.412;20.970;2023-02-05T00:39:17;7.15;;;2.35;;
36061;SDS011;22123;52.412;20.970;2023-02-05T00:41:43;3.33;;;1.73;;
36061;SDS011;22123;52.412;20.970;2023-02-05T00:44:09;6.68;;;2.22;;
36061;SDS011;22123;52.412;20.970;2023-02-05T00:46:34;6.78;;;1.55;;
36061;SDS011;22123;52.412;20.970;2023-02-05T00:49:00;6.40;;;3.35;;
36061;SDS011;22123;52.412;20.970;2023-02-05T00:51:26;12.63;;;3.63;;
36061;SDS011;22123;52.412;20.970;2023-02-05T00:53:52;7.05;;;2.80;;
36061;SDS011;22123;52.412;20.970;2023-02-05T00:56:18;7.45;;;2.40;;
36061;SDS011;22123;52.412;20.970;2023-02-05T00:58:46;6.65;;;2.50;;
36061;SDS011;22123;52.412;20.970;2023-02-05T01:01:12;5.47;;;1.85;;
36061;SDS011;22123;52.412;20.970;2023-02-05T01:03:39;5.30;;;2.05;;
36061;SDS011;22123;52.412;20.970;2023-02-05T01:06:05;2.28;;;1.58;;
36061;SDS011;22123;52.412;20.970;2023-02-05T01:08:31;3.10;;;1.85;;
36061;SDS011;22123;52.412;20.970;2023-02-05T01:10:57;3.15;;;1.65;;
36061;SDS011;22123;52.412;20.970;2023-02-05T01:13:24;3.45;;;1.88;;
36061;SDS011;22123;52.412;20.970;2023-02-05T01:15:50;7.03;;;2.50;;
36061;SDS011;22123;52.412;20.970;2023-02-05T01:18:16;3.13;;;1.77;;
36061;SDS011;22123;52.412;20.970;2023-02-05T01:20:42;3.75;;;1.73;;
36061;SDS011;22123;52.412;20.970;2023-02-05T01:23:09;3.45;;;1.52;;
36061;SDS011;22123;52.412;20.970;2023-02-05T01:25:35;4.65;;;1.58;;
36061;SDS011;22123;52.412;20.970;2023-02-05T01:28:02;3.17;;;1.52;;
36061;SDS011;22123;52.412;20.970;2023-02-05T01:30:28;4.18;;;1.60;;
36061;SDS011;22123;52.412;20.970;2023-02-05T01:32:54;7.60;;;1.98;;
36061;SDS011;22123;52.412;20.970;2023-02-05T01:35:20;6.10;;;1.92;;
36061;SDS011;22123;52.412;20.970;2023-02-05T01:37:46;9.82;;;2.00;;
36061;SDS011;22123;52.412;20.970;2023-02-05T01:40:15;3.00;;;1.38;;
36061;SDS011;22123;52.412;20.970;2023-02-05T01:42:42;2.25;;;1.10;;
36061;SDS011;22123;52.412;20.970;2023-02-05T01:47:50;1.67;;;1.38;;
36061;SDS011;22123;52.412;20.970;2023-02-05T01:50:20;6.90;;;1.55;;
36061;SDS011;22123;52.412;20.970;2023-02-05T01:52:51;5.47;;;1.75;;
36061;SDS011;22123;52.412;20.970;2023-02-05T01:55:18;4.32;;;1.67;;
36061;SDS011;22123;52.412;20.970;2023-02-05T01:57:45;4.10;;;2.38;;
36061;SDS011;22123;52.412;20.970;2023-02-05T02:00:13;3.45;;;1.77;;
36061;SDS011;22123;52.412;20.970;2023-02-05T02:02:39;9.85;;;1.52;;
36061;SDS011;22123;52.412;20.970;2023-02-05T02:05:08;4.70;;;1.58;;
36061;SDS011;22123;52.412;20.970;2023-02-05T02:07:35;5.18;;;2.38;;
36061;SDS011;22123;52.412;20.970;2023-02-05T02:10:02;3.42;;;1.77;;
36061;SDS011;22123;52.412;20.970;2023-02-05T02:12:30;4.40;;;2.90;;
36061;SDS011;22123;52.412;20.970;2023-02-05T02:15:00;1.98;;;1.23;;
36061;SDS011;22123;52.412;20.970;2023-02-05T02:17:30;7.53;;;2.47;;
36061;SDS011;22123;52.412;20.970;2023-02-05T02:20:00;6.10;;;2.40;;
36061;SDS011;22123;52.412;20.970;2023-02-05T02:25:41;2.22;;;1.27;;
36061;SDS011;22123;52.412;20.970;2023-02-05T02:28:13;6.72;;;2.00;;
36061;SDS011;22123;52.412;20.970;2023-02-05T02:30:49;9.65;;;2.42;;
36061;SDS011;22123;52.412;20.970;2023-02-05T02:38:32;4.57;;;1.27;;
36061;SDS011;22123;52.412;20.970;2023-02-05T02:41:04;7.00;;;2.38;;
36061;SDS011;22123;52.412;20.970;2023-02-05T02:43:37;3.55;;;1.92;;
36061;SDS011;22123;52.412;20.970;2023-02-05T02:46:22;3.45;;;1.85;;
36061;SDS011;22123;52.412;20.970;2023-02-05T02:48:53;4.15;;;1.40;;
36061;SDS011;22123;52.412;20.970;2023-02-05T02:51:22;1.93;;;1.37;;
36061;SDS011;22123;52.412;20.970;2023-02-05T02:53:52;5.13;;;1.88;;
36061;SDS011;22123;52.412;20.970;2023-02-05T02:56:21;4.95;;;1.63;;
36061;SDS011;22123;52.412;20.970;2023-02-05T02:58:52;1.83;;;1.17;;
36061;SDS011;22123;52.412;20.970;2023-02-05T03:01:22;3.00;;;1.95;;
36061;SDS011;22123;52.412;20.970;2023-02-05T03:03:51;4.78;;;2.63;;
36061;SDS011;22123;52.412;20.970;2023-02-05T03:06:22;5.43;;;2.45;;
36061;SDS011;22123;52.412;20.970;2023-02-05T03:11:25;6.40;;;1.38;;
36061;SDS011;22123;52.412;20.970;2023-02-05T03:13:51;6.72;;;1.38;;
36061;SDS011;22123;52.412;20.970;2023-02-05T03:16:19;6.22;;;1.90;;
36061;SDS011;22123;52.412;20.970;2023-02-05T03:18:46;4.53;;;1.80;;
36061;SDS011;22123;52.412;20.970;2023-02-05T03:21:18;5.90;;;2.35;;
36061;SDS011;22123;52.412;20.970;2023-02-05T03:23:48;3.35;;;1.70;;
36061;SDS011;22123;52.412;20.970;2023-02-05T03:26:22;9.40;;;2.50;;
36061;SDS011;22123;52.412;20.970;2023-02-05T03:28:48;1.98;;;0.82;;
36061;SDS011;22123;52.412;20.970;2023-02-05T03:31:17;6.30;;;2.30;;
36061;SDS011;22123;52.412;20.970;2023-02-05T03:34:00;3.08;;;1.15;;
36061;SDS011;22123;52.412;20.970;2023-02-05T03:39:48;0.88;;;0.77;;
36061;SDS011;22123;52.412;20.970;2023-02-05T03:42:46;3.63;;;1.55;;
36061;SDS011;22123;52.412;20.970;2023-02-05T03:51:16;4.37;;;1.27;;
36061;SDS011;22123;52.412;20.970;2023-02-05T03:53:49;2.42;;;0.93;;
36061;SDS011;22123;52.412;20.970;2023-02-05T03:56:35;1.55;;;0.80;;
36061;SDS011;22123;52.412;20.970;2023-02-05T03:59:21;1.80;;;1.00;;
36061;SDS011;22123;52.412;20.970;2023-02-05T04:01:48;4.30;;;1.52;;
36061;SDS011;22123;52.412;20.970;2023-02-05T04:04:15;3.20;;;1.27;;
36061;SDS011;22123;52.412;20.970;2023-02-05T04:06:41;6.50;;;1.65;;
36061;SDS011;22123;52.412;20.970;2023-02-05T04:09:09;3.20;;;1.30;;
36061;SDS011;22123;52.412;20.970;2023-02-05T04:11:35;1.98;;;1.00;;
36061;SDS011;22123;52.412;20.970;2023-02-05T04:14:01;2.75;;;1.15;;
36061;SDS011;22123;52.412;20.970;2023-02-05T04:16:27;5.53;;;1.92;;
36061;SDS011;22123;52.412;20.970;2023-02-05T04:18:53;6.05;;;2.15;;
36061;SDS011;22123;52.412;20.970;2023-02-05T04:21:19;6.40;;;1.75;;
36061;SDS011;22123;52.412;20.970;2023-02-05T04:23:45;5.18;;;2.50;;
36061;SDS011;22123;52.412;20.970;2023-02-05T04:26:10;4.82;;;1.63;;
36061;SDS011;22123;52.412;20.970;2023-02-05T04:28:36;2.00;;;1.08;;
36061;SDS011;22123;52.412;20.970;2023-02-05T04:31:05;6.03;;;1.55;;
36061;SDS011;22123;52.412;20.970;2023-02-05T04:33:32;2.63;;;1.38;;
36061;SDS011;22123;52.412;20.970;2023-02-05T04:35:59;4.07;;;1.42;;
36061;SDS011;22123;52.412;20.970;2023-02-05T04:38:25;3.47;;;1.95;;
36061;SDS011;22123;52.412;20.970;2023-02-05T04:40:51;2.70;;;1.55;;
36061;SDS011;22123;52.412;20.970;2023-02-05T04:43:17;11.23;;;3.35;;
36061;SDS011;22123;52.412;20.970;2023-02-05T04:45:43;3.83;;;1.70;;
36061;SDS011;22123;52.412;20.970;2023-02-05T04:48:10;8.32;;;2.97;;
36061;SDS011;22123;52.412;20.970;2023-02-05T04:50:36;7.28;;;1.98;;
36061;SDS011;22123;52.412;20.970;2023-02-05T04:53:03;4.30;;;1.48;;
36061;SDS011;22123;52.412;20.970;2023-02-05T04:55:29;9.75;;;2.78;;
36061;SDS011;22123;52.412;20.970;2023-02-05T04:57:55;3.67;;;2.08;;
36061;SDS011;22123;52.412;20.970;2023-02-05T05:00:23;5.90;;;2.13;;
36061;SDS011;22123;52.412;20.970;2023-02-05T05:02:49;2.60;;;1.95;;
36061;SDS011;22123;52.412;20.970;2023-02-05T05:05:15;4.97;;;2.40;;
36061;SDS011;22123;52.412;20.970;2023-02-05T05:07:41;8.65;;;2.35;;
36061;SDS011;22123;52.412;20.970;2023-02-05T05:10:07;7.57;;;2.03;;
36061;SDS011;22123;52.412;20.970;2023-02-05T05:12:35;3.65;;;1.63;;
36061;SDS011;22123;52.412;20.970;2023-02-05T05:15:02;3.20;;;1.45;;
36061;SDS011;22123;52.412;20.970;2023-02-05T05:17:30;2.35;;;1.00;;
36061;SDS011;22123;52.412;20.970;2023-02-05T05:19:58;10.55;;;2.63;;
36061;SDS011;22123;52.412;20.970;2023-02-05T05:22:24;5.30;;;2.47;;
36061;SDS011;22123;52.412;20.970;2023-02-05T05:24:50;4.03;;;1.60;;
36061;SDS011;22123;52.412;20.970;2023-02-05T05:27:16;5.80;;;1.23;;
36061;SDS011;22123;52.412;20.970;2023-02-05T05:29:42;3.38;;;1.77;;
36061;SDS011;22123;52.412;20.970;2023-02-05T05:32:08;3.35;;;2.28;;
36061;SDS011;22123;52.412;20.970;2023-02-05T05:34:33;3.78;;;1.77;;
36061;SDS011;22123;52.412;20.970;2023-02-05T05:36:59;2.25;;;1.00;;
36061;SDS011;22123;52.412;20.970;2023-02-05T05:39:25;2.42;;;1.08;;
36061;SDS011;22123;52.412;20.970;2023-02-05T05:41:51;2.42;;;1.00;;
36061;SDS011;22123;52.412;20.970;2023-02-05T05:44:17;4.38;;;1.38;;
36061;SDS011;22123;52.412;20.970;2023-02-05T05:46:43;3.60;;;1.30;;
36061;SDS011;22123;52.412;20.970;2023-02-05T05:49:09;3.47;;;1.33;;
36061;SDS011;22123;52.412;20.970;2023-02-05T05:51:34;3.25;;;1.15;;
36061;SDS011;22123;52.412;20.970;2023-02-05T05:54:00;3.50;;;1.58;;
36061;SDS011;22123;52.412;20.970;2023-02-05T05:56:26;2.83;;;1.30;;
36061;SDS011;22123;52.412;20.970;2023-02-05T05:58:52;2.00;;;1.25;;
36061;SDS011;22123;52.412;20.970;2023-02-05T06:01:18;2.70;;;1.30;;
36061;SDS011;22123;52.412;20.970;2023-02-05T06:03:44;11.63;;;1.73;;
36061;SDS011;22123;52.412;20.970;2023-02-05T06:06:11;6.60;;;1.63;;
36061;SDS011;22123;52.412;20.970;2023-02-05T06:08:37;2.22;;;1.25;;
36061;SDS011;22123;52.412;20.970;2023-02-05T06:11:03;3.40;;;1.75;;
36061;SDS011;22123;52.412;20.970;2023-02-05T06:13:29;3.13;;;1.50;;
36061;SDS011;22123;52.412;20.970;2023-02-05T06:15:55;4.35;;;1.85;;
36061;SDS011;22123;52.412;20.970;2023-02-05T06:18:21;4.07;;;1.52;;
36061;SDS011;22123;52.412;20.970;2023-02-05T06:20:47;2.75;;;1.58;;
36061;SDS011;22123;52.412;20.970;2023-02-05T06:23:13;2.83;;;1.60;;
36061;SDS011;22123;52.412;20.970;2023-02-05T06:25:39;6.10;;;1.60;;
36061;SDS011;22123;52.412;20.970;2023-02-05T06:28:06;2.25;;;0.93;;
36061;SDS011;22123;52.412;20.970;2023-02-05T06:30:32;2.35;;;0.80;;
36061;SDS011;22123;52.412;20.970;2023-02-05T06:32:58;3.20;;;1.55;;
36061;SDS011;22123;52.412;20.970;2023-02-05T06:35:23;5.10;;;1.55;;
36061;SDS011;22123;52.412;20.970;2023-02-05T06:37:49;4.70;;;1.77;;
36061;SDS011;22123;52.412;20.970;2023-02-05T06:40:15;3.50;;;1.13;;
36061;SDS011;22123;52.412;20.970;2023-02-05T06:42:43;2.92;;;1.15;;
36061;SDS011;22123;52.412;20.970;2023-02-05T06:45:09;5.15;;;2.03;;
36061;SDS011;22123;52.412;20.970;2023-02-05T06:47:36;4.00;;;1.75;;
36061;SDS011;22123;52.412;20.970;2023-02-05T06:50:03;3.15;;;1.70;;
36061;SDS011;22123;52.412;20.970;2023-02-05T06:52:30;4.65;;;2.20;;
36061;SDS011;22123;52.412;20.970;2023-02-05T06:54:56;1.85;;;1.00;;
36061;SDS011;22123;52.412;20.970;2023-02-05T06:57:22;2.42;;;1.15;;
36061;SDS011;22123;52.412;20.970;2023-02-05T06:59:48;4.03;;;1.55;;
36061;SDS011;22123;52.412;20.970;2023-02-05T07:02:13;3.55;;;1.08;;
36061;SDS011;22123;52.412;20.970;2023-02-05T07:04:40;1.50;;;0.98;;
36061;SDS011;22123;52.412;20.970;2023-02-05T07:07:06;7.57;;;2.25;;
36061;SDS011;22123;52.412;20.970;2023-02-05T07:09:31;3.50;;;1.20;;
36061;SDS011;22123;52.412;20.970;2023-02-05T07:11:57;7.38;;;1.85;;
36061;SDS011;22123;52.412;20.970;2023-02-05T07:14:23;7.65;;;1.58;;
36061;SDS011;22123;52.412;20.970;2023-02-05T07:16:49;2.88;;;1.48;;
36061;SDS011;22123;52.412;20.970;2023-02-05T07:19:15;3.85;;;1.98;;
36061;SDS011;22123;52.412;20.970;2023-02-05T07:21:41;3.88;;;1.73;;
36061;SDS011;22123;52.412;20.970;2023-02-05T07:24:07;5.80;;;2.15;;
36061;SDS011;22123;52.412;20.970;2023-02-05T07:26:33;6.50;;;1.77;;
36061;SDS011;22123;52.412;20.970;2023-02-05T07:28:58;3.22;;;1.63;;
36061;SDS011;22123;52.412;20.970;2023-02-05T07:31:24;2.92;;;1.38;;
36061;SDS011;22123;52.412;20.970;2023-02-05T07:33:50;2.22;;;1.08;;
36061;SDS011;22123;52.412;20.970;2023-02-05T07:36:16;2.88;;;1.67;;
36061;SDS011;22123;52.412;20.970;2023-02-05T07:38:43;3.20;;;1.63;;
36061;SDS011;22123;52.412;20.970;2023-02-05T07:41:12;2.15;;;1.10;;
36061;SDS011;22123;52.412;20.970;2023-02-05T07:43:39;5.90;;;1.77;;
36061;SDS011;22123;52.412;20.970;2023-02-05T07:46:07;6.15;;;2.58;;
36061;SDS011;22123;52.412;20.970;2023-02-05T07:48:34;4.07;;;2.22;;
36061;SDS011;22123;52.412;20.970;2023-02-05T07:51:01;3.08;;;1.45;;
36061;SDS011;22123;52.412;20.970;2023-02-05T07:53:28;4.35;;;1.42;;
36061;SDS011;22123;52.412;20.970;2023-02-05T07:55:54;5.32;;;1.77;;
36061;SDS011;22123;52.412;20.970;2023-02-05T07:58:19;3.33;;;1.85;;
36061;SDS011;22123;52.412;20.970;2023-02-05T08:00:46;6.28;;;2.33;;
36061;SDS011;22123;52.412;20.970;2023-02-05T08:03:11;4.38;;;1.60;;
36061;SDS011;22123;52.412;20.970;2023-02-05T08:05:37;3.97;;;1.95;;
36061;SDS011;22123;52.412;20.970;2023-02-05T08:08:04;4.85;;;2.50;;
36061;SDS011;22123;52.412;20.970;2023-02-05T08:10:31;6.75;;;2.83;;
36061;SDS011;22123;52.412;20.970;2023-02-05T08:12:57;6.53;;;2.25;;
36061;SDS011;22123;52.412;20.970;2023-02-05T08:15:23;11.68;;;3.97;;
36061;SDS011;22123;52.412;20.970;2023-02-05T08:17:49;3.25;;;1.88;;
36061;SDS011;22123;52.412;20.970;2023-02-05T08:20:15;4.15;;;2.38;;
36061;SDS011;22123;52.412;20.970;2023-02-05T08:22:41;4.50;;;1.92;;
36061;SDS011;22123;52.412;20.970;2023-02-05T08:25:09;12.50;;;2.53;;
36061;SDS011;22123;52.412;20.970;2023-02-05T08:27:37;7.13;;;2.78;;
36061;SDS011;22123;52.412;20.970;2023-02-05T08:30:05;8.27;;;2.45;;
36061;SDS011;22123;52.412;20.970;2023-02-05T08:32:35;9.27;;;2.53;;
36061;SDS011;22123;52.412;20.970;2023-02-05T08:35:02;4.10;;;2.15;;
36061;SDS011;22123;52.412;20.970;2023-02-05T08:37:28;2.00;;;1.65;;
36061;SDS011;22123;52.412;20.970;2023-02-05T08:39:54;5.68;;;2.65;;
36061;SDS011;22123;52.412;20.970;2023-02-05T08:42:20;8.00;;;2.42;;
36061;SDS011;22123;52.412;20.970;2023-02-05T08:44:45;5.97;;;2.10;;
36061;SDS011;22123;52.412;20.970;2023-02-05T08:47:11;2.97;;;1.20;;
36061;SDS011;22123;52.412;20.970;2023-02-05T08:49:37;5.18;;;1.70;;
36061;SDS011;22123;52.412;20.970;2023-02-05T08:52:03;5.35;;;1.63;;
36061;SDS011;22123;52.412;20.970;2023-02-05T08:54:29;2.97;;;1.45;;
36061;SDS011;22123;52.412;20.970;2023-02-05T08:56:55;3.70;;;1.65;;
36061;SDS011;22123;52.412;20.970;2023-02-05T08:59:21;3.38;;;1.70;;
36061;SDS011;22123;52.412;20.970;2023-02-05T09:01:47;4.43;;;1.63;;
36061;SDS011;22123;52.412;20.970;2023-02-05T09:04:13;6.70;;;2.55;;
36061;SDS011;22123;52.412;20.970;2023-02-05T09:06:44;3.38;;;1.15;;
36061;SDS011;22123;52.412;20.970;2023-02-05T09:09:10;5.18;;;2.75;;
36061;SDS011;22123;52.412;20.970;2023-02-05T09:11:37;2.85;;;1.00;;
36061;SDS011;22123;52.412;20.970;2023-02-05T09:14:03;3.95;;;1.48;;
36061;SDS011;22123;52.412;20.970;2023-02-05T09:16:29;4.38;;;1.23;;
36061;SDS011;22123;52.412;20.970;2023-02-05T09:18:56;3.17;;;1.30;;
36061;SDS011;22123;52.412;20.970;2023-02-05T09:21:23;3.65;;;1.65;;
36061;SDS011;22123;52.412;20.970;2023-02-05T09:23:49;2.78;;;1.20;;
36061;SDS011;22123;52.412;20.970;2023-02-05T09:26:15;1.45;;;1.10;;
36061;SDS011;22123;52.412;20.970;2023-02-05T09:28:41;1.75;;;1.00;;
36061;SDS011;22123;52.412;20.970;2023-02-05T09:31:08;3.20;;;1.23;;
36061;SDS011;22123;52.412;20.970;2023-02-05T09:33:36;6.50;;;2.58;;
36061;SDS011;22123;52.412;20.970;2023-02-05T09:38:36;3.42;;;1.67;;
36061;SDS011;22123;52.412;20.970;2023-02-05T09:41:13;4.05;;;1.70;;
36061;SDS011;22123;52.412;20.970;2023-02-05T09:43:51;4.90;;;1.25;;
36061;SDS011;22123;52.412;20.970;2023-02-05T09:51:44;4.25;;;1.73;;
36061;SDS011;22123;52.412;20.970;2023-02-05T09:54:23;5.25;;;1.73;;
36061;SDS011;22123;52.412;20.970;2023-02-05T09:56:52;2.15;;;0.98;;
36061;SDS011;22123;52.412;20.970;2023-02-05T09:59:26;7.30;;;1.80;;
36061;SDS011;22123;52.412;20.970;2023-02-05T10:01:55;2.85;;;1.75;;
36061;SDS011;22123;52.412;20.970;2023-02-05T10:04:24;2.83;;;1.33;;
36061;SDS011;22123;52.412;20.970;2023-02-05T10:09:45;1.90;;;0.65;;
36061;SDS011;22123;52.412;20.970;2023-02-05T10:17:49;3.00;;;1.33;;
36061;SDS011;22123;52.412;20.970;2023-02-05T10:23:52;1.02;;;0.90;;
36061;SDS011;22123;52.412;20.970;2023-02-05T10:26:31;1.75;;;0.90;;
36061;SDS011;22123;52.412;20.970;2023-02-05T10:37:07;3.22;;;1.50;;
36061;SDS011;22123;52.412;20.970;2023-02-05T10:39:39;3.50;;;1.42;;
36061;SDS011;22123;52.412;20.970;2023-02-05T10:42:06;4.57;;;1.48;;
36061;SDS011;22123;52.412;20.970;2023-02-05T10:44:41;5.40;;;1.67;;
36061;SDS011;22123;52.412;20.970;2023-02-05T10:47:13;2.28;;;1.10;;
36061;SDS011;22123;52.412;20.970;2023-02-05T10:49:47;6.38;;;1.85;;
36061;SDS011;22123;52.412;20.970;2023-02-05T10:52:19;2.25;;;1.00;;
36061;SDS011;22123;52.412;20.970;2023-02-05T10:54:45;3.22;;;1.35;;
36061;SDS011;22123;52.412;20.970;2023-02-05T10:57:21;3.08;;;1.67;;
36061;SDS011;22123;52.412;20.970;2023-02-05T10:59:58;3.80;;;2.38;;
36061;SDS011;22123;52.412;20.970;2023-02-05T11:02:33;3.33;;;1.25;;
36061;SDS011;22123;52.412;20.970;2023-02-05T11:05:12;2.80;;;1.27;;
36061;SDS011;22123;52.412;20.970;2023-02-05T11:08:00;1.52;;;1.27;;
36061;SDS011;22123;52.412;20.970;2023-02-05T11:10:29;2.50;;;1.55;;
36061;SDS011;22123;52.412;20.970;2023-02-05T11:13:01;1.65;;;1.10;;
36061;SDS011;22123;52.412;20.970;2023-02-05T11:18:21;2.55;;;1.10;;
36061;SDS011;22123;52.412;20.970;2023-02-05T11:20:56;1.95;;;1.60;;
36061;SDS011;22123;52.412;20.970;2023-02-05T11:23:24;1.95;;;0.77;;
36061;SDS011;22123;52.412;20.970;2023-02-05T11:25:57;3.42;;;1.48;;
36061;SDS011;22123;52.412;20.970;2023-02-05T11:28:29;2.53;;;1.80;;
36061;SDS011;22123;52.412;20.970;2023-02-05T11:30:56;0.85;;;0.40;;
36061;SDS011;22123;52.412;20.970;2023-02-05T11:33:41;2.03;;;1.00;;
36061;SDS011;22123;52.412;20.970;2023-02-05T11:36:08;2.03;;;0.73;;
36061;SDS011;22123;52.412;20.970;2023-02-05T11:38:45;0.90;;;0.52;;
36061;SDS011;22123;52.412;20.970;2023-02-05T11:41:28;1.70;;;0.82;;
36061;SDS011;22123;52.412;20.970;2023-02-05T11:43:57;2.00;;;0.75;;
36061;SDS011;22123;52.412;20.970;2023-02-05T11:46:25;0.98;;;0.82;;
36061;SDS011;22123;52.412;20.970;2023-02-05T11:49:00;1.38;;;0.88;;
36061;SDS011;22123;52.412;20.970;2023-02-05T11:53:57;0.80;;;0.60;;
36061;SDS011;22123;52.412;20.970;2023-02-05T11:56:24;2.13;;;0.88;;
36061;SDS011;22123;52.412;20.970;2023-02-05T11:59:01;1.13;;;0.95;;
36061;SDS011;22123;52.412;20.970;2023-02-05T12:01:41;0.98;;;0.77;;
36061;SDS011;22123;52.412;20.970;2023-02-05T12:09:20;0.85;;;0.80;;
36061;SDS011;22123;52.412;20.970;2023-02-05T12:11:56;2.30;;;1.05;;
36061;SDS011;22123;52.412;20.970;2023-02-05T12:17:00;8.55;;;2.10;;
36061;SDS011;22123;52.412;20.970;2023-02-05T12:22:45;1.88;;;1.35;;
36061;SDS011;22123;52.412;20.970;2023-02-05T12:25:29;1.77;;;0.98;;
36061;SDS011;22123;52.412;20.970;2023-02-05T12:34:07;1.60;;;1.10;;
36061;SDS011;22123;52.412;20.970;2023-02-05T12:36:54;4.53;;;0.77;;
36061;SDS011;22123;52.412;20.970;2023-02-05T12:45:35;3.83;;;1.45;;
36061;SDS011;22123;52.412;20.970;2023-02-05T12:59:30;2.50;;;0.90;;
36061;SDS011;22123;52.412;20.970;2023-02-05T13:04:38;4.50;;;1.83;;
36061;SDS011;22123;52.412;20.970;2023-02-05T13:09:58;1.20;;;1.08;;
36061;SDS011;22123;52.412;20.970;2023-02-05T13:12:39;2.40;;;1.30;;
36061;SDS011;22123;52.412;20.970;2023-02-05T13:20:47;1.70;;;1.02;;
36061;SDS011;22123;52.412;20.970;2023-02-05T13:23:17;2.28;;;1.15;;
36061;SDS011;22123;52.412;20.970;2023-02-05T13:25:45;4.63;;;1.20;;
36061;SDS011;22123;52.412;20.970;2023-02-05T13:33:22;2.88;;;1.38;;
36061;SDS011;22123;52.412;20.970;2023-02-05T13:59:01;2.88;;;0.98;;
36061;SDS011;22123;52.412;20.970;2023-02-05T14:01:35;3.67;;;1.60;;
36061;SDS011;22123;52.412;20.970;2023-02-05T14:06:45;2.00;;;1.35;;
36061;SDS011;22123;52.412;20.970;2023-02-05T14:12:22;5.50;;;2.08;;
36061;SDS011;22123;52.412;20.970;2023-02-05T14:28:31;4.47;;;1.20;;
36061;SDS011;22123;52.412;20.970;2023-02-05T14:30:58;5.40;;;2.05;;
36061;SDS011;22123;52.412;20.970;2023-02-05T14:33:26;3.92;;;1.85;;
36061;SDS011;22123;52.412;20.970;2023-02-05T14:35:56;4.28;;;2.20;;
36061;SDS011;22123;52.412;20.970;2023-02-05T14:39:02;3.67;;;1.88;;
36061;SDS011;22123;52.412;20.970;2023-02-05T14:41:53;6.60;;;2.78;;
36061;SDS011;22123;52.412;20.970;2023-02-05T14:49:43;5.68;;;2.63;;
36061;SDS011;22123;52.412;20.970;2023-02-05T14:54:44;3.10;;;1.73;;
36061;SDS011;22123;52.412;20.970;2023-02-05T15:02:48;4.55;;;1.33;;
36061;SDS011;22123;52.412;20.970;2023-02-05T15:05:36;3.92;;;1.67;;
36061;SDS011;22123;52.412;20.970;2023-02-05T15:13:32;3.42;;;1.60;;
36061;SDS011;22123;52.412;20.970;2023-02-05T15:18:38;5.72;;;1.77;;
36061;SDS011;22123;52.412;20.970;2023-02-05T15:21:11;1.92;;;1.30;;
36061;SDS011;22123;52.412;20.970;2023-02-05T15:23:41;3.72;;;2.08;;
36061;SDS011;22123;52.412;20.970;2023-02-05T15:26:18;7.05;;;2.05;;
36061;SDS011;22123;52.412;20.970;2023-02-05T15:34:01;5.35;;;2.10;;
36061;SDS011;22123;52.412;20.970;2023-02-05T15:36:39;5.20;;;1.58;;
36061;SDS011;22123;52.412;20.970;2023-02-05T15:41:40;4.28;;;1.98;;
36061;SDS011;22123;52.412;20.970;2023-02-05T15:44:17;10.48;;;5.07;;
36061;SDS011;22123;52.412;20.970;2023-02-05T15:46:45;6.53;;;3.40;;
36061;SDS011;22123;52.412;20.970;2023-02-05T15:49:12;15.93;;;4.53;;
36061;SDS011;22123;52.412;20.970;2023-02-05T15:51:39;12.15;;;6.00;;
36061;SDS011;22123;52.412;20.970;2023-02-05T15:54:05;16.80;;;4.40;;
36061;SDS011;22123;52.412;20.970;2023-02-05T15:56:38;20.55;;;6.32;;
36061;SDS011;22123;52.412;20.970;2023-02-05T16:01:41;15.07;;;6.32;;
36061;SDS011;22123;52.412;20.970;2023-02-05T16:06:55;17.38;;;5.55;;
36061;SDS011;22123;52.412;20.970;2023-02-05T16:09:23;13.90;;;3.92;;
36061;SDS011;22123;52.412;20.970;2023-02-05T16:11:51;13.70;;;5.05;;
36061;SDS011;22123;52.412;20.970;2023-02-05T16:19:27;10.82;;;3.80;;
36061;SDS011;22123;52.412;20.970;2023-02-05T16:22:09;18.95;;;5.28;;
36061;SDS011;22123;52.412;20.970;2023-02-05T16:24:45;7.20;;;3.47;;
36061;SDS011;22123;52.412;20.970;2023-02-05T16:27:16;8.60;;;3.13;;
36061;SDS011;22123;52.412;20.970;2023-02-05T16:30:17;8.32;;;3.25;;
36061;SDS011;22123;52.412;20.970;2023-02-05T16:32:50;6.18;;;3.00;;
36061;SDS011;22123;52.412;20.970;2023-02-05T16:37:44;5.85;;;2.53;;
36061;SDS011;22123;52.412;20.970;2023-02-05T16:40:10;12.27;;;3.03;;
36061;SDS011;22123;52.412;20.970;2023-02-05T16:42:43;20.27;;;4.53;;
36061;SDS011;22123;52.412;20.970;2023-02-05T16:45:17;20.17;;;5.53;;
36061;SDS011;22123;52.412;20.970;2023-02-05T16:47:55;16.00;;;5.10;;
36061;SDS011;22123;52.412;20.970;2023-02-05T16:50:47;13.07;;;5.10;;
36061;SDS011;22123;52.412;20.970;2023-02-05T16:53:29;15.70;;;4.07;;
36061;SDS011;22123;52.412;20.970;2023-02-05T16:56:01;12.07;;;5.25;;
36061;SDS011;22123;52.412;20.970;2023-02-05T16:58:42;14.85;;;5.40;;
36061;SDS011;22123;52.412;20.970;2023-02-05T17:01:10;12.50;;;4.20;;
36061;SDS011;22123;52.412;20.970;2023-02-05T17:03:37;9.80;;;5.18;;
36061;SDS011;22123;52.412;20.970;2023-02-05T17:06:09;16.63;;;5.65;;
36061;SDS011;22123;52.412;20.970;2023-02-05T17:08:38;14.82;;;4.10;;
36061;SDS011;22123;52.412;20.970;2023-02-05T17:11:05;19.08;;;4.82;;
36061;SDS011;22123;52.412;20.970;2023-02-05T17:13:51;10.85;;;5.47;;
36061;SDS011;22123;52.412;20.970;2023-02-05T17:16:52;9.65;;;4.38;;
36061;SDS011;22123;52.412;20.970;2023-02-05T17:19:25;16.35;;;5.53;;
36061;SDS011;22123;52.412;20.970;2023-02-05T17:24:47;13.60;;;4.18;;
36061;SDS011;22123;52.412;20.970;2023-02-05T17:27:17;28.05;;;7.15;;
36061;SDS011;22123;52.412;20.970;2023-02-05T17:29:46;24.73;;;6.68;;
36061;SDS011;22123;52.412;20.970;2023-02-05T17:32:16;23.27;;;6.70;;
36061;SDS011;22123;52.412;20.970;2023-02-05T17:34:44;15.88;;;4.82;;
36061;SDS011;22123;52.412;20.970;2023-02-05T17:37:10;19.60;;;5.93;;
36061;SDS011;22123;52.412;20.970;2023-02-05T17:39:36;19.08;;;7.47;;
36061;SDS011;22123;52.412;20.970;2023-02-05T17:42:03;31.48;;;9.25;;
36061;SDS011;22123;52.412;20.970;2023-02-05T17:44:29;22.17;;;6.82;;
36061;SDS011;22123;52.412;20.970;2023-02-05T17:46:56;26.70;;;9.30;;
36061;SDS011;22123;52.412;20.970;2023-02-05T17:49:22;28.65;;;7.40;;
36061;SDS011;22123;52.412;20.970;2023-02-05T17:51:48;22.50;;;6.28;;
36061;SDS011;22123;52.412;20.970;2023-02-05T17:54:15;22.15;;;6.85;;
36061;SDS011;22123;52.412;20.970;2023-02-05T17:56:43;11.85;;;6.15;;
36061;SDS011;22123;52.412;20.970;2023-02-05T17:59:10;20.95;;;6.38;;